createdAt,value
2022-12-23T00:00:18.140Z,6.64
2022-12-23T00:03:16.330Z,6.65
2022-12-23T00:06:01.691Z,6.65
2022-12-23T00:08:41.306Z,6.64
2022-12-23T00:11:27.397Z,6.59
2022-12-23T00:14:32.726Z,6.53
2022-12-23T00:17:23.817Z,6.50
2022-12-23T00:20:05.223Z,6.51
2022-12-23T00:23:02.061Z,6.54
2022-12-23T00:25:49.986Z,6.60
2022-12-23T00:28:36.013Z,6.66
2022-12-23T00:31:18.462Z,6.64
2022-12-23T00:34:05.834Z,6.67
2022-12-23T00:36:47.844Z,6.69
2022-12-23T00:39:46.035Z,6.70
2022-12-23T00:42:47.800Z,6.73
2022-12-23T00:45:33.808Z,6.79
2022-12-23T00:48:34.870Z,6.80
2022-12-23T00:51:16.715Z,6.79
2022-12-23T00:54:00.601Z,6.79
2022-12-23T00:56:43.769Z,6.77
2022-12-23T00:59:27.441Z,6.76
2022-12-23T01:02:26.625Z,6.79
2022-12-23T01:05:27.355Z,6.77
2022-12-23T01:08:10.607Z,6.72
2022-12-23T01:10:52.112Z,6.63
2022-12-23T01:13:32.515Z,6.54
2022-12-23T01:16:17.573Z,6.48
2022-12-23T01:18:58.410Z,6.42
2022-12-23T01:21:41.394Z,6.39
2022-12-23T01:24:20.812Z,6.37
2022-12-23T01:27:02.325Z,6.39
2022-12-23T01:29:44.314Z,6.38
2022-12-23T01:32:24.434Z,6.37
2022-12-23T01:35:08.090Z,6.32
2022-12-23T01:37:47.304Z,6.23
2022-12-23T01:40:29.162Z,6.11
2022-12-23T01:43:11.210Z,6.04
2022-12-23T01:45:54.409Z,5.99
2022-12-23T01:48:35.159Z,5.99
2022-12-23T01:51:30.264Z,5.99
2022-12-23T01:54:14.223Z,5.99
2022-12-23T01:56:55.112Z,5.99
2022-12-23T01:59:54.862Z,6.00
2022-12-23T02:02:58.432Z,5.99
2022-12-23T02:05:45.053Z,5.98
2022-12-23T02:08:43.828Z,5.97
2022-12-23T02:11:34.161Z,5.95
2022-12-23T02:14:44.790Z,5.95
2022-12-23T02:17:54.048Z,5.94
2022-12-23T02:20:52.695Z,5.97
2022-12-23T02:23:48.827Z,5.99
2022-12-23T02:27:03.029Z,5.99
2022-12-23T02:30:21.076Z,5.94
2022-12-23T02:33:20.250Z,5.89
2022-12-23T02:36:02.768Z,5.84
2022-12-23T02:38:55.403Z,5.82
2022-12-23T02:41:53.355Z,5.88
2022-12-23T02:44:31.673Z,5.95
2022-12-23T02:47:31.971Z,6.01
2022-12-23T02:50:19.841Z,6.07
2022-12-23T02:53:03.047Z,6.15
2022-12-23T02:55:47.730Z,6.21
2022-12-23T02:58:32.801Z,6.26
2022-12-23T03:01:16.590Z,6.29
2022-12-23T03:03:57.347Z,6.34
2022-12-23T03:06:42.241Z,6.39
2022-12-23T03:09:39.758Z,6.45
2022-12-23T03:12:38.904Z,6.52
2022-12-23T03:15:37.174Z,6.62
2022-12-23T03:18:51.684Z,6.72
2022-12-23T03:21:50.828Z,6.81
2022-12-23T03:24:53.404Z,6.86
2022-12-23T03:27:52.403Z,6.91
2022-12-23T03:30:43.202Z,6.94
2022-12-23T03:33:34.237Z,7.00
2022-12-23T03:36:20.313Z,7.05
2022-12-23T03:39:03.091Z,7.09
2022-12-23T03:41:52.223Z,7.11
2022-12-23T03:44:57.195Z,7.13
2022-12-23T03:47:53.454Z,7.16
2022-12-23T03:50:37.439Z,7.19
2022-12-23T03:53:27.679Z,7.24
2022-12-23T03:56:19.349Z,7.28
2022-12-23T03:59:32.244Z,7.31
2022-12-23T04:02:33.354Z,7.34
2022-12-23T04:05:29.182Z,7.37
2022-12-23T04:08:33.242Z,7.38
2022-12-23T04:11:16.708Z,7.39
2022-12-23T04:13:57.574Z,7.37
2022-12-23T04:16:40.523Z,7.36
2022-12-23T04:19:22.506Z,7.37
2022-12-23T04:22:05.701Z,7.37
2022-12-23T04:24:45.514Z,7.37
2022-12-23T04:27:23.664Z,7.38
2022-12-23T04:30:03.906Z,7.39
2022-12-23T04:32:46.952Z,7.41
2022-12-23T04:35:32.923Z,7.43
2022-12-23T04:38:12.950Z,7.46
2022-12-23T04:40:57.683Z,7.50
2022-12-23T04:43:38.940Z,7.52
2022-12-23T04:46:23.044Z,7.53
2022-12-23T04:49:02.086Z,7.54
2022-12-23T04:51:46.134Z,7.53
2022-12-23T04:54:28.287Z,7.52
2022-12-23T04:57:06.866Z,7.52
2022-12-23T04:59:46.864Z,7.52
2022-12-23T05:02:27.675Z,7.53
2022-12-23T05:05:10.560Z,7.54
2022-12-23T05:07:50.083Z,7.57
2022-12-23T05:10:28.656Z,7.61
2022-12-23T05:13:09.596Z,7.65
2022-12-23T05:15:58.015Z,7.70
2022-12-23T05:18:36.072Z,7.72
2022-12-23T05:21:08.934Z,7.74
2022-12-23T05:23:45.459Z,7.75
2022-12-23T05:26:26.740Z,7.75
2022-12-23T05:29:04.734Z,7.75
2022-12-23T05:31:47.930Z,7.74
2022-12-23T05:34:28.243Z,7.73
2022-12-23T05:37:09.504Z,7.73
2022-12-23T05:39:50.891Z,7.76
2022-12-23T05:42:33.649Z,7.78
2022-12-23T05:45:16.436Z,7.81
2022-12-23T05:47:58.960Z,7.84
2022-12-23T05:50:40.214Z,7.84
2022-12-23T05:53:20.171Z,7.83
2022-12-23T05:56:04.725Z,7.82
2022-12-23T05:58:47.759Z,7.81
2022-12-23T06:01:26.606Z,7.80
2022-12-23T06:04:05.921Z,7.80
2022-12-23T06:06:48.969Z,7.80
2022-12-23T06:09:27.391Z,7.81
2022-12-23T06:12:09.036Z,7.83
2022-12-23T06:14:52.622Z,7.85
2022-12-23T06:17:37.870Z,7.86
2022-12-23T06:20:20.999Z,7.87
2022-12-23T06:23:02.815Z,7.87
2022-12-23T06:25:44.723Z,7.86
2022-12-23T06:28:22.911Z,7.84
2022-12-23T06:31:02.665Z,7.84
2022-12-23T06:33:43.864Z,7.84
2022-12-23T06:36:22.383Z,7.84
2022-12-23T06:39:04.364Z,7.85
2022-12-23T06:41:46.189Z,7.86
2022-12-23T06:44:19.061Z,7.88
2022-12-23T06:46:46.439Z,7.89
2022-12-23T06:49:20.333Z,7.92
2022-12-23T06:52:04.558Z,7.94
2022-12-23T06:54:43.435Z,7.93
2022-12-23T06:57:26.925Z,7.92
2022-12-23T07:00:03.644Z,7.90
2022-12-23T07:02:42.114Z,7.90
2022-12-23T07:05:20.943Z,7.90
2022-12-23T07:08:02.510Z,7.93
2022-12-23T07:10:40.027Z,7.94
2022-12-23T07:13:23.768Z,7.96
2022-12-23T07:16:02.109Z,7.96
2022-12-23T07:18:47.752Z,7.94
2022-12-23T07:21:29.473Z,7.93
2022-12-23T07:24:18.490Z,7.92
2022-12-23T07:26:58.497Z,7.91
2022-12-23T07:29:38.854Z,7.92
2022-12-23T07:32:16.924Z,7.94
2022-12-23T07:34:54.988Z,7.98
2022-12-23T07:37:36.372Z,8.05
2022-12-23T07:40:18.363Z,8.11
2022-12-23T07:43:00.661Z,8.16
2022-12-23T07:45:38.261Z,8.21
2022-12-23T07:48:17.966Z,8.25
2022-12-23T07:50:56.366Z,8.29
2022-12-23T07:53:37.092Z,8.34
2022-12-23T07:56:18.878Z,8.39
2022-12-23T07:58:59.592Z,8.44
2022-12-23T08:01:37.067Z,8.46
2022-12-23T08:04:16.350Z,8.47
2022-12-23T08:06:58.103Z,8.52
2022-12-23T08:09:37.104Z,8.54
2022-12-23T08:12:17.757Z,8.53
2022-12-23T08:14:58.749Z,8.54
2022-12-23T08:17:38.335Z,8.57
2022-12-23T08:20:18.818Z,8.62
2022-12-23T08:22:57.931Z,8.69
2022-12-23T08:25:38.979Z,8.79
2022-12-23T08:28:23.808Z,8.88
2022-12-23T08:31:08.961Z,8.97
2022-12-23T08:33:52.285Z,9.04
2022-12-23T08:36:35.872Z,9.06
2022-12-23T08:39:16.641Z,9.07
2022-12-23T08:41:54.294Z,9.05
2022-12-23T08:44:34.811Z,9.05
2022-12-23T08:47:12.219Z,9.05
2022-12-23T08:49:55.846Z,9.05
2022-12-23T08:52:34.334Z,9.07
2022-12-23T08:55:07.215Z,9.09
2022-12-23T08:57:40.742Z,9.11
2022-12-23T09:00:15.117Z,9.14
2022-12-23T09:02:52.811Z,9.17
2022-12-23T09:05:28.937Z,9.18
2022-12-23T09:08:03.591Z,9.17
2022-12-23T09:10:48.312Z,9.17
2022-12-23T09:13:32.823Z,9.18
2022-12-23T09:16:10.180Z,9.24
2022-12-23T09:18:41.221Z,9.30
2022-12-23T09:21:20.923Z,9.34
2022-12-23T09:23:57.588Z,9.34
2022-12-23T09:26:38.213Z,9.34
2022-12-23T09:29:14.253Z,9.35
2022-12-23T09:31:54.402Z,9.36
2022-12-23T09:34:31.829Z,9.36
2022-12-23T09:37:09.863Z,9.39
2022-12-23T09:39:46.976Z,9.42
2022-12-23T09:43:03.369Z,9.42
2022-12-23T09:46:05.892Z,9.40
2022-12-23T09:48:53.797Z,9.36
2022-12-23T09:51:31.110Z,9.28
2022-12-23T09:54:17.689Z,9.19
2022-12-23T09:56:57.162Z,9.12
2022-12-23T09:59:52.185Z,9.09
2022-12-23T10:03:05.536Z,9.08
2022-12-23T10:06:16.548Z,9.09
2022-12-23T10:09:04.107Z,9.13
2022-12-23T10:12:04.888Z,9.16
2022-12-23T10:14:47.714Z,9.19
2022-12-23T10:17:46.829Z,9.25
2022-12-23T10:20:36.436Z,9.34
2022-12-23T10:23:18.728Z,9.39
2022-12-23T10:25:57.454Z,9.45
2022-12-23T10:28:41.560Z,9.47
2022-12-23T10:31:39.939Z,9.51
2022-12-23T10:34:38.445Z,9.57
2022-12-23T10:37:32.080Z,9.58
2022-12-23T10:40:25.475Z,9.59
2022-12-23T10:43:20.717Z,9.60
2022-12-23T10:46:43.683Z,9.58
2022-12-23T10:49:56.578Z,9.57
2022-12-23T10:52:42.267Z,9.58
2022-12-23T10:55:34.017Z,9.62
2022-12-23T10:58:54.249Z,9.66
2022-12-23T11:01:39.434Z,9.74
2022-12-23T11:04:32.570Z,9.79
2022-12-23T11:07:46.463Z,9.81
2022-12-23T11:10:27.121Z,9.83
2022-12-23T11:13:05.548Z,9.83
2022-12-23T11:15:49.468Z,9.86
2022-12-23T11:18:27.308Z,9.89
2022-12-23T11:21:22.700Z,9.93
2022-12-23T11:24:23.196Z,9.95
2022-12-23T11:27:18.504Z,9.93
2022-12-23T11:29:58.976Z,9.90
2022-12-23T11:32:38.982Z,9.88
2022-12-23T11:35:36.096Z,9.87
2022-12-23T11:38:21.761Z,9.87
2022-12-23T11:40:59.071Z,9.89
2022-12-23T11:43:41.554Z,9.92
2022-12-23T11:46:20.058Z,9.95
2022-12-23T11:49:22.823Z,9.98
2022-12-23T11:52:05.808Z,10.02
2022-12-23T11:54:52.762Z,10.03
2022-12-23T11:57:52.701Z,10.04
2022-12-23T12:00:37.135Z,10.05
2022-12-23T12:03:23.667Z,10.08
2022-12-23T12:06:11.296Z,10.14
2022-12-23T12:08:56.535Z,10.22
2022-12-23T12:11:44.402Z,10.29
2022-12-23T12:14:37.599Z,10.37
2022-12-23T12:17:59.463Z,10.43
2022-12-23T12:20:56.684Z,10.46
2022-12-23T12:24:18.415Z,10.48
2022-12-23T12:27:05.513Z,10.45
2022-12-23T12:30:01.074Z,10.44
2022-12-23T12:33:02.485Z,10.44
2022-12-23T12:39:08.965Z,10.46
2022-12-23T12:42:10.567Z,10.45
2022-12-23T12:45:09.667Z,10.41
2022-12-23T12:48:23.601Z,10.38
2022-12-23T12:51:08.949Z,10.34
2022-12-23T12:54:30.920Z,10.32
2022-12-23T12:57:22.202Z,10.29
2022-12-23T13:00:08.534Z,10.28
2022-12-23T13:03:06.381Z,10.29
2022-12-23T13:06:15.124Z,10.29
2022-12-23T13:09:16.983Z,10.32
2022-12-23T13:12:13.484Z,10.33
2022-12-23T13:15:40.960Z,10.33
2022-12-23T13:18:32.246Z,10.32
2022-12-23T13:21:34.164Z,10.32
2022-12-23T13:24:18.342Z,10.33
2022-12-23T13:27:07.616Z,10.35
2022-12-23T13:30:09.128Z,10.36
2022-12-23T13:33:14.154Z,10.38
2022-12-23T13:35:51.904Z,10.35
2022-12-23T13:38:49.192Z,10.35
2022-12-23T13:41:59.843Z,10.36
2022-12-23T13:44:39.165Z,10.38
2022-12-23T13:47:35.835Z,10.41
2022-12-23T13:50:23.881Z,10.45
2022-12-23T13:54:13.501Z,10.48
2022-12-23T13:57:10.978Z,10.45
2022-12-23T14:00:05.968Z,10.37
2022-12-23T14:03:04.317Z,10.28
2022-12-23T14:05:49.252Z,10.24
2022-12-23T14:08:50.648Z,10.23
2022-12-23T14:11:41.017Z,10.21
2022-12-23T14:14:28.858Z,10.16
2022-12-23T14:20:42.960Z,10.15
2022-12-23T14:23:28.912Z,10.13
2022-12-23T14:26:37.911Z,10.07
2022-12-23T14:30:03.165Z,9.98
2022-12-23T14:33:29.304Z,9.89
2022-12-23T14:36:33.720Z,9.87
2022-12-23T14:39:20.028Z,9.85
2022-12-23T14:42:07.600Z,9.86
2022-12-23T14:44:53.117Z,9.86
2022-12-23T14:47:40.423Z,9.86
2022-12-23T14:50:37.002Z,9.82
2022-12-23T14:53:27.487Z,9.78
2022-12-23T14:56:35.184Z,9.77
2022-12-23T14:59:38.808Z,9.76
2022-12-23T15:02:26.082Z,9.77
2022-12-23T15:05:05.877Z,9.76
2022-12-23T15:07:49.625Z,9.75
2022-12-23T15:10:33.869Z,9.73
2022-12-23T15:13:18.389Z,9.71
2022-12-23T15:16:01.697Z,9.71
2022-12-23T15:18:53.407Z,9.71
2022-12-23T15:21:39.531Z,9.72
2022-12-23T15:24:23.249Z,9.76
2022-12-23T15:27:26.685Z,9.79
2022-12-23T15:30:08.890Z,9.79
2022-12-23T15:32:55.817Z,9.78
2022-12-23T15:35:35.072Z,9.76
2022-12-23T15:41:21.305Z,9.67
2022-12-23T15:43:57.142Z,9.65
2022-12-23T15:46:29.719Z,9.67
2022-12-23T15:48:58.088Z,9.68
2022-12-23T15:55:00.046Z,9.65
2022-12-23T15:57:51.782Z,9.64
2022-12-23T16:00:34.335Z,9.63
2022-12-23T16:03:26.561Z,9.61
2022-12-23T16:06:29.161Z,9.56
2022-12-23T16:09:27.105Z,9.53
2022-12-23T16:12:26.862Z,9.53
2022-12-23T16:15:06.080Z,9.51
2022-12-23T16:17:48.144Z,9.49
2022-12-23T16:20:31.365Z,9.45
2022-12-23T16:23:08.004Z,9.42
2022-12-23T16:25:36.268Z,9.38
2022-12-23T16:28:21.360Z,9.34
2022-12-23T16:31:02.211Z,9.35
2022-12-23T16:33:53.705Z,9.36
2022-12-23T16:36:40.664Z,9.36
2022-12-23T16:39:34.754Z,9.41
2022-12-23T16:42:31.026Z,9.40
2022-12-23T16:45:14.528Z,9.37
2022-12-23T16:48:01.878Z,9.34
2022-12-23T16:50:40.588Z,9.32
2022-12-23T16:53:18.898Z,9.29
2022-12-23T16:56:01.139Z,9.29
2022-12-23T16:58:44.871Z,9.30
2022-12-23T17:01:42.437Z,9.29
2022-12-23T17:04:22.900Z,9.29
2022-12-23T17:07:06.450Z,9.26
2022-12-23T17:09:44.430Z,9.20
2022-12-23T17:12:25.379Z,9.16
2022-12-23T17:15:08.518Z,9.15
2022-12-23T17:18:03.013Z,9.14
2022-12-23T17:20:43.984Z,9.14
2022-12-23T17:23:39.096Z,9.15
2022-12-23T17:26:17.484Z,9.13
2022-12-23T17:29:05.279Z,9.09
2022-12-23T17:31:45.167Z,9.08
2022-12-23T17:34:31.835Z,9.02
2022-12-23T17:37:35.463Z,8.96
2022-12-23T17:40:30.377Z,8.87
2022-12-23T17:43:09.672Z,8.83
2022-12-23T17:45:49.045Z,8.81
2022-12-23T17:48:31.420Z,8.78
2022-12-23T17:51:21.389Z,8.72
2022-12-23T17:54:04.016Z,8.64
2022-12-23T17:56:46.055Z,8.62
2022-12-23T17:59:23.090Z,8.62
2022-12-23T18:01:59.246Z,8.62
2022-12-23T18:04:42.969Z,8.64
2022-12-23T18:07:34.482Z,8.67
2022-12-23T18:10:18.910Z,8.71
2022-12-23T18:13:09.880Z,8.75
2022-12-23T18:15:48.067Z,8.76
2022-12-23T18:18:43.728Z,8.73
2022-12-23T18:21:32.313Z,8.71
2022-12-23T18:24:20.857Z,8.71
2022-12-23T18:27:03.411Z,8.73
2022-12-23T18:30:04.311Z,8.75
2022-12-23T18:32:39.088Z,8.75
2022-12-23T18:35:36.493Z,8.77
2022-12-23T18:38:16.335Z,8.80
2022-12-23T18:41:00.256Z,8.84
2022-12-23T18:43:42.346Z,8.84
2022-12-23T18:46:25.195Z,8.80
2022-12-23T18:49:05.967Z,8.76
2022-12-23T18:51:51.778Z,8.73
2022-12-23T18:54:32.027Z,8.73
2022-12-23T18:57:10.749Z,8.65
2022-12-23T18:59:51.671Z,8.58
2022-12-23T19:02:31.366Z,8.57
2022-12-23T19:05:10.100Z,8.57
2022-12-23T19:07:56.687Z,8.53
2022-12-23T19:10:42.512Z,8.49
2022-12-23T19:13:22.190Z,8.49
2022-12-23T19:16:00.212Z,8.54
2022-12-23T19:18:40.839Z,8.60
2022-12-23T19:21:21.939Z,8.65
2022-12-23T19:24:04.440Z,8.68
2022-12-23T19:26:46.406Z,8.66
2022-12-23T19:29:27.969Z,8.58
2022-12-23T19:32:11.852Z,8.51
2022-12-23T19:34:53.740Z,8.48
2022-12-23T19:37:44.702Z,8.45
2022-12-23T19:40:29.625Z,8.47
2022-12-23T19:43:14.327Z,8.50
2022-12-23T19:46:10.506Z,8.53
2022-12-23T19:48:54.266Z,8.54
2022-12-23T19:51:31.943Z,8.53
2022-12-23T19:54:12.451Z,8.50
2022-12-23T19:56:56.916Z,8.46
2022-12-23T19:59:37.488Z,8.43
2022-12-23T20:02:24.352Z,8.40
2022-12-23T20:05:03.935Z,8.40
2022-12-23T20:07:49.668Z,8.42
2022-12-23T20:10:28.511Z,8.46
2022-12-23T20:13:10.098Z,8.57
2022-12-23T20:15:53.471Z,8.68
2022-12-23T20:18:38.903Z,8.74
2022-12-23T20:21:16.154Z,8.77
2022-12-23T20:23:58.623Z,8.78
2022-12-23T20:26:38.270Z,8.79
2022-12-23T20:29:26.525Z,8.80
2022-12-23T20:32:08.720Z,8.81
2022-12-23T20:34:55.745Z,8.82
2022-12-23T20:37:37.906Z,8.84
2022-12-23T20:40:26.082Z,8.89
2022-12-23T20:43:04.389Z,8.92
2022-12-23T20:45:57.665Z,8.90
2022-12-23T20:48:39.121Z,8.85
2022-12-23T20:51:28.955Z,8.83
2022-12-23T20:54:06.937Z,8.83
2022-12-23T20:56:57.221Z,8.84
2022-12-23T20:59:35.869Z,8.87
2022-12-23T21:02:23.590Z,8.89
2022-12-23T21:05:04.567Z,8.90
2022-12-23T21:07:52.599Z,8.91
2022-12-23T21:10:32.794Z,8.91
2022-12-23T21:13:11.948Z,8.89
2022-12-23T21:15:51.258Z,8.88
2022-12-23T21:18:34.251Z,8.87
2022-12-23T21:21:18.774Z,8.86
2022-12-23T21:24:05.663Z,8.84
2022-12-23T21:26:53.508Z,8.82
2022-12-23T21:29:40.828Z,8.81
2022-12-23T21:32:21.773Z,8.81
2022-12-23T21:35:08.604Z,8.81
2022-12-23T21:37:59.498Z,8.81
2022-12-23T21:40:44.831Z,8.82
2022-12-23T21:43:23.869Z,8.82
2022-12-23T21:46:12.503Z,8.81
2022-12-23T21:48:53.393Z,8.79
2022-12-23T21:51:41.319Z,8.76
2022-12-23T21:54:18.001Z,8.74
2022-12-23T21:57:11.923Z,8.71
2022-12-23T21:59:51.793Z,8.70
2022-12-23T22:02:43.105Z,8.70
2022-12-23T22:05:23.919Z,8.72
2022-12-23T22:08:03.140Z,8.73
2022-12-23T22:10:50.935Z,8.74
2022-12-23T22:13:31.867Z,8.77
2022-12-23T22:16:16.092Z,8.78
2022-12-23T22:18:58.079Z,8.76
2022-12-23T22:21:36.953Z,8.73
2022-12-23T22:24:23.419Z,8.70
2022-12-23T22:27:01.677Z,8.68
2022-12-23T22:29:42.667Z,8.67
2022-12-23T22:32:25.048Z,8.66
2022-12-23T22:35:11.970Z,8.67
2022-12-23T22:37:51.616Z,8.65
2022-12-23T22:40:40.841Z,8.63
2022-12-23T22:43:20.807Z,8.60
2022-12-23T22:46:08.159Z,8.57
2022-12-23T22:48:51.286Z,8.56
2022-12-23T22:51:36.218Z,8.56
2022-12-23T22:54:15.773Z,8.56
2022-12-23T22:57:11.167Z,8.57
2022-12-23T22:59:52.259Z,8.58
2022-12-23T23:02:35.413Z,8.58
2022-12-23T23:05:17.590Z,8.58
2022-12-23T23:08:05.453Z,8.59
2022-12-23T23:10:45.716Z,8.59
2022-12-23T23:13:25.198Z,8.58
2022-12-23T23:16:15.171Z,8.57
2022-12-23T23:18:58.011Z,8.56
2022-12-23T23:21:40.880Z,8.54
2022-12-23T23:24:25.168Z,8.52
2022-12-23T23:27:15.832Z,8.51
2022-12-23T23:30:03.935Z,8.51
2022-12-23T23:32:43.283Z,8.52
2022-12-23T23:35:28.011Z,8.53
2022-12-23T23:38:07.123Z,8.56
2022-12-23T23:40:54.003Z,8.57
2022-12-23T23:43:36.231Z,8.58
2022-12-23T23:46:15.806Z,8.57
2022-12-23T23:48:52.396Z,8.57
2022-12-23T23:51:34.432Z,8.57
2022-12-23T23:54:13.636Z,8.56
2022-12-23T23:56:57.021Z,8.57
2022-12-23T23:59:40.804Z,8.58
